Latest Weather Observations for Mount William

IDV60801

Issued at 2:02 pm EDT Friday 19 December 2014 (issued every 30 minutes, with the page automatically refreshed every 10 minutes)

About weather observations | Map of weather stations | Latest weather observations for VIC | Other Formats
Station Details ID: 079103 Name: MOUNT WILLIAM Lat: -37.30 Lon: 142.60 Height: 1150.0 m
Data from the previous 72 hours. | See also: Recent months at Mount William
Date/Time
EDT
Temp
°C
App
Temp
°C
Dew
Point
Rel
Hum
%
Delta-T
°C
Wind Press
QNH
hPa
Press
MSL
hPa
Rain
since 9 am
mm
Dir
 
Spd
km/h
Gust
km/h
Spd
kts
Gust
kts
19/02:00pm 11.3 7.1 5.6 68 2.8 SSW 17 32 9 17 - - 0.0
19/01:30pm 10.6 7.4 5.2 69 2.6 SW 11 26 6 14 - - 0.0
19/01:00pm 10.1 5.7 4.9 70 2.5 SW 17 30 9 16 - - 0.0
19/12:30pm 9.2 6.1 3.8 69 2.5 WSW 9 19 5 10 - - 0.0
19/12:00pm 8.5 4.7 4.1 74 2.1 SW 13 24 7 13 - - 0.0
19/11:30am 7.1 3.3 4.1 81 1.4 WSW 13 26 7 14 - - 0.0
19/11:00am 7.4 2.2 3.6 77 1.7 SW 20 28 11 15 - - 0.0
19/10:30am 7.1 2.7 4.6 84 1.2 SW 17 30 9 16 - - 0.0
19/10:00am 6.4 0.9 4.2 86 1.0 SW 22 39 12 21 - - 0.0
19/09:30am 6.0 0.9 3.3 83 1.2 SW 19 32 10 17 - - 0.0
19/09:00am 5.4 -0.9 3.6 88 0.8 SW 26 43 14 23 - - 0.0
19/08:30am 4.3 -2.5 3.0 91 0.6 SW 28 43 15 23 - - 0.0
19/08:00am 3.8 -2.7 2.8 93 0.4 SW 26 39 14 21 - - 0.0
19/07:30am 3.5 -2.5 3.2 98 0.1 SW 24 35 13 19 - - 0.0
19/07:00am 3.2 -3.6 2.9 98 0.1 SW 28 43 15 23 - - 0.0
19/06:30am 2.7 -4.2 2.4 98 0.1 SW 28 41 15 22 - - 0.0
19/06:00am 2.8 -5.0 2.7 99 0.0 SW 33 46 18 25 - - 0.0
19/05:42am 2.7 -4.9 2.6 99 0.0 SW 32 50 17 27 - - 0.0
19/05:30am 2.6 -5.3 2.5 99 0.0 SW 33 46 18 25 - - 0.0
19/05:00am 2.7 -4.9 2.6 99 0.0 SW 32 52 17 28 - - 0.0
19/04:53am 3.1 -4.1 3.0 99 0.0 SW 30 52 16 28 - - 0.0
19/04:30am 3.3 -3.5 3.2 99 0.0 SW 28 44 15 24 - - 0.0
19/04:00am 3.5 -3.6 3.4 99 0.0 SW 30 43 16 23 - - 0.0
19/03:30am 3.5 -2.1 3.4 99 0.0 WSW 22 37 12 20 - - 0.0
19/03:00am 3.9 -2.0 3.8 99 0.0 WSW 24 41 13 22 - - 0.0
19/02:30am 4.0 -1.5 3.9 99 0.0 SW 22 39 12 21 - - 0.0
19/02:00am 4.0 -2.7 3.9 99 0.0 SW 28 41 15 22 - - 0.0
19/01:30am 4.2 -1.3 4.1 99 0.0 WSW 22 39 12 21 - - 0.0
19/01:00am 4.2 -0.9 4.1 99 0.0 WSW 20 33 11 18 - - 0.0
19/12:30am 4.1 -2.2 4.0 99 0.0 SW 26 41 14 22 - - 0.0
19/12:00am 4.0 -3.1 3.7 98 0.1 SW 30 44 16 24 - - 0.0
 
Date/Time
EDT
Temp
°C
App
Temp
°C
Dew
Point
Rel
Hum
%
Delta-T
°C
Wind Press
QNH
hPa
Press
MSL
hPa
Rain
since 9 am
mm
Dir
 
Spd
km/h
Gust
km/h
Spd
kts
Gust
kts
18/11:30pm 4.2 -2.5 3.9 98 0.1 SW 28 43 15 23 - - 0.0
18/11:00pm 4.4 -2.2 4.0 97 0.2 SW 28 41 15 22 - - 0.0
18/10:30pm 4.6 -1.2 4.2 97 0.2 SW 24 37 13 20 - - 0.0
18/10:00pm 5.0 -0.1 4.3 95 0.3 SW 20 37 11 20 - - 0.0
18/09:30pm 5.4 0.6 4.5 94 0.4 SW 19 33 10 18 - - 0.0
18/09:00pm 6.0 0.5 3.8 86 1.0 SW 22 37 12 20 - - 0.0
18/08:30pm 6.2 0.8 4.5 89 0.8 WSW 22 46 12 25 - - 0.0
18/08:00pm 6.4 1.1 5.0 91 0.7 WSW 22 41 12 22 - - 0.0
18/07:36pm 6.7 0.3 5.0 89 0.8 WSW 28 50 15 27 - - 0.0
18/07:30pm 7.0 1.4 5.2 88 0.9 WSW 24 50 13 27 - - 0.0
18/07:00pm 7.2 1.6 5.5 89 0.8 WSW 24 41 13 22 - - 0.0
18/06:30pm 7.6 1.4 6.1 90 0.7 SW 28 50 15 27 - - 0.0
18/06:16pm 8.3 2.1 6.1 86 1.1 WSW 28 48 15 26 - - 0.0
18/06:00pm 9.1 3.7 4.7 74 2.1 SW 22 43 12 23 - - 0.0
18/05:30pm 8.3 3.3 6.6 89 0.8 WSW 22 44 12 24 - - 0.0
18/05:00pm 7.8 2.3 7.7 99 0.1 WSW 26 44 14 24 - - 0.0
18/04:30pm 8.4 3.8 8.3 99 0.1 WSW 22 43 12 23 - - 0.0
18/04:21pm 8.0 2.2 7.9 99 0.1 WSW 28 46 15 25 - - 0.0
18/04:00pm 7.8 2.3 7.7 99 0.1 WSW 26 39 14 21 - - 0.0
18/03:30pm 7.0 0.6 6.9 99 0.0 WSW 30 50 16 27 - - 0.0
18/03:25pm 6.8 0.7 6.7 99 0.0 WSW 28 50 15 27 - - 0.0
18/03:19pm 7.2 0.8 7.1 99 0.0 WSW 30 50 16 27 - - 0.0
18/03:08pm 7.4 0.7 7.3 99 0.0 SW 32 57 17 31 - - 0.0
18/03:00pm 8.5 3.2 8.4 99 0.1 W 26 52 14 28 - - 0.0
18/02:30pm 8.4 1.9 8.3 99 0.1 WSW 32 54 17 29 - - 0.0
18/02:00pm 7.9 1.7 7.8 99 0.1 WSW 30 57 16 31 - - 0.0
18/01:31pm 7.6 1.7 7.5 99 0.1 WSW 28 52 15 28 - - 0.0
18/01:30pm 7.8 2.3 7.7 99 0.1 WSW 26 46 14 25 - - 0.0
18/01:00pm 11.0 6.2 7.3 78 1.9 W 22 35 12 19 - - 0.0
18/12:30pm 8.9 4.8 8.6 98 0.2 WSW 20 33 11 18 - - 0.0
18/12:00pm 8.0 3.8 7.4 96 0.3 W 19 28 10 15 - - 0.0
18/11:30am 7.8 3.4 6.4 91 0.7 W 19 30 10 16 - - 0.0
18/11:00am 7.8 4.1 6.1 89 0.8 W 15 24 8 13 - - 0.0
18/10:30am 8.2 4.3 5.5 83 1.3 W 15 28 8 15 - - 0.0
18/10:00am 7.8 4.1 4.4 79 1.6 W 13 22 7 12 - - 0.0
18/09:30am 8.4 4.6 4.0 74 2.1 WSW 13 26 7 14 - - 0.0
18/09:00am 7.5 3.3 3.9 78 1.7 WSW 15 28 8 15 - - 0.0
18/08:30am 7.3 3.2 4.1 80 1.5 WSW 15 24 8 13 - - 0.0
18/08:00am 6.6 2.1 4.1 84 1.2 WSW 17 26 9 14 - - 0.0
18/07:30am 6.3 1.1 3.5 82 1.3 WSW 20 32 11 17 - - 0.0
18/07:00am 5.8 -0.1 3.8 87 0.9 WSW 24 33 13 18 - - 0.0
18/06:30am 5.7 0.1 3.5 86 1.0 WSW 22 32 12 17 - - 0.0
18/06:00am 6.0 -0.3 3.7 85 1.0 WSW 26 39 14 21 - - 0.0
18/05:30am 6.1 0.1 3.6 84 1.1 WSW 24 33 13 18 - - 0.0
18/05:00am 6.3 0.0 3.5 82 1.3 WSW 26 35 14 19 - - 0.0
18/04:30am 6.8 0.8 3.4 79 1.5 WSW 24 35 13 19 - - 0.0
18/04:00am 6.9 0.9 3.2 77 1.7 WSW 24 33 13 18 - - 0.0
18/03:30am 7.4 0.6 2.9 73 2.0 WSW 28 37 15 20 - - 0.0
18/03:00am 7.6 1.5 2.9 72 2.1 WSW 24 33 13 18 - - 0.0
18/02:30am 8.0 2.2 2.5 68 2.5 W 22 28 12 15 - - 0.0
18/02:00am 8.4 2.5 2.0 64 2.9 W 22 26 12 14 - - 0.0
18/01:30am 8.0 3.3 3.3 72 2.2 W 17 19 9 10 - - 0.0
18/01:00am 8.3 3.6 3.2 70 2.3 W 17 20 9 11 - - 0.0
18/12:30am 8.6 4.3 3.0 68 2.6 WSW 15 17 8 9 - - 0.0
18/12:00am 7.1 3.4 4.2 82 1.3 SW 13 17 7 9 - - 0.0
 
Date/Time
EDT
Temp
°C
App
Temp
°C
Dew
Point
Rel
Hum
%
Delta-T
°C
Wind Press
QNH
hPa
Press
MSL
hPa
Rain
since 9 am
mm
Dir
 
Spd
km/h
Gust
km/h
Spd
kts
Gust
kts
17/11:30pm 6.8 2.7 4.6 86 1.0 S 15 22 8 12 - - 0.0
17/11:00pm 7.2 3.2 4.7 84 1.2 S 15 22 8 12 - - 0.0
17/10:30pm 7.6 3.5 4.4 80 1.5 SSE 15 22 8 12 - - 0.0
17/10:00pm 9.8 6.9 2.6 61 3.3 WSW 7 13 4 7 - - 0.0
17/09:30pm 9.4 6.3 3.8 68 2.6 SSW 9 19 5 10 - - 0.0
17/09:00pm 11.1 6.9 1.9 53 4.2 W 13 15 7 8 - - 0.0
17/08:30pm 12.3 8.5 1.9 49 4.8 WSW 11 17 6 9 - - 0.0
17/08:00pm 12.5 9.0 1.2 46 5.1 W 9 15 5 8 - - 0.0
17/07:30pm 13.5 9.6 0.9 42 5.7 WSW 11 17 6 9 - - 0.0
17/07:00pm 13.5 9.2 0.9 42 5.7 WSW 13 20 7 11 - - 0.0
17/06:30pm 14.8 11.5 2.4 43 5.9 W 9 17 5 9 - - 0.0
17/06:00pm 14.6 11.1 1.2 40 6.2 WSW 9 17 5 9 - - 0.0
17/05:30pm 14.8 11.8 1.7 41 6.1 W 7 20 4 11 - - 0.0
17/05:00pm 15.2 12.0 3.0 44 5.9 SW 9 15 5 8 - - 0.0
17/04:30pm 14.5 11.2 2.4 44 5.7 SW 9 26 5 14 - - 0.0
17/04:00pm 13.8 10.7 1.5 43 5.7 WNW 7 15 4 8 - - 0.0
17/03:30pm 13.9 10.6 2.2 45 5.5 WSW 9 19 5 10 - - 0.0
17/03:00pm 12.5 9.6 1.5 47 5.0 WSW 6 15 3 8 - - 0.0
17/02:30pm 12.4 9.2 2.8 52 4.5 SW 9 19 5 10 - - 0.0
17/02:00pm 11.2 7.4 2.0 53 4.2 W 11 20 6 11 - - 0.0
17/01:30pm 12.0 9.3 3.8 57 3.9 SW 7 17 4 9 - - 0.0
17/01:00pm 10.6 7.3 2.2 56 3.8 WSW 9 20 5 11 - - 0.0
17/12:30pm 9.5 6.2 2.4 61 3.2 WSW 9 19 5 10 - - 0.0
17/12:00pm 8.8 5.3 1.5 60 3.2 SW 9 19 5 10 - - 0.0
17/11:30am 9.0 5.8 3.0 66 2.8 WSW 9 20 5 11 - - 0.0
17/11:00am 8.5 4.9 2.9 68 2.6 SW 11 20 6 11 - - 0.0
17/10:30am 7.6 4.2 3.8 77 1.8 SW 11 22 6 12 - - 0.0
17/10:00am 6.5 3.7 3.1 79 1.5 SSW 7 15 4 8 - - 0.0
17/09:30am 6.4 3.6 2.9 78 1.6 SW 7 15 4 8 - - 0.0
17/09:00am 5.5 2.7 3.2 85 1.0 SW 7 17 4 9 - - 0.0
17/08:30am 4.7 1.5 2.9 88 0.8 SW 9 13 5 7 - - 0.0
17/08:00am 4.2 0.9 2.4 88 0.8 SSW 9 13 5 7 - - 0.0
17/07:30am 3.4 -0.9 3.1 98 0.1 SSW 15 20 8 11 - - 0.0
17/07:00am 2.8 -2.0 2.7 99 0.0 SW 17 24 9 13 - - 0.0
17/06:30am 2.9 -2.8 2.8 99 0.0 SW 22 33 12 18 - - 0.0
17/06:00am 3.3 -1.8 3.2 99 0.0 WSW 19 33 10 18 - - 0.0
17/05:30am 3.4 -1.8 3.3 99 0.0 SW 20 33 11 18 - - 0.0
17/05:00am 3.2 -2.8 3.1 99 0.0 SW 24 33 13 18 - - 0.0
17/04:30am 3.2 -3.2 3.1 99 0.0 SW 26 37 14 20 - - 0.0
17/04:00am 3.2 -1.5 3.1 99 0.0 SW 17 32 9 17 - - 0.0
17/03:30am 3.2 -1.5 3.1 99 0.0 SW 17 32 9 17 - - 0.0
17/03:00am 3.2 -2.1 3.1 99 0.0 SW 20 39 11 21 - - 0.0
17/02:30am 3.5 -3.2 3.4 99 0.0 WSW 28 50 15 27 - - 0.0
17/02:27am 3.4 -3.0 3.3 99 0.0 WSW 26 50 14 27 - - 0.0
17/02:00am 3.7 -0.2 3.6 99 0.0 SW 13 39 7 21 - - 0.0
17/01:30am 3.6 -1.4 3.5 99 0.0 WSW 19 35 10 19 - - 0.0
17/01:00am 3.6 -2.0 3.5 99 0.0 WSW 22 43 12 23 - - 0.0
17/12:30am 3.7 -0.9 3.6 99 0.0 WSW 17 39 9 21 - - 0.0
17/12:00am 3.9 -2.1 3.2 95 0.3 WSW 24 43 13 23 - - 0.0
 
Date/Time
EDT
Temp
°C
App
Temp
°C
Dew
Point
Rel
Hum
%
Delta-T
°C
Wind Press
QNH
hPa
Press
MSL
hPa
Rain
since 9 am
mm
Dir
 
Spd
km/h
Gust
km/h
Spd
kts
Gust
kts
16/11:30pm 4.0 -0.3 3.1 94 0.4 SW 15 39 8 21 - - 0.0
16/11:00pm 4.4 -1.2 3.2 92 0.5 WSW 22 37 12 20 - - 0.0
16/10:30pm 4.7 -0.4 3.0 89 0.8 WSW 19 33 10 18 - - 0.0
16/10:00pm 5.0 0.7 3.0 87 0.9 W 15 32 8 17 - - 0.0
16/09:30pm 5.0 -0.4 2.4 83 1.1 W 20 32 11 17 - - 0.0
16/09:00pm 5.6 -0.6 2.4 80 1.4 W 24 43 13 23 - - 0.0
16/08:30pm 6.0 0.6 2.5 78 1.5 W 20 43 11 23 - - 0.0
16/08:00pm 6.5 1.0 2.0 73 2.0 WSW 20 39 11 21 - - 0.0
16/07:33pm 6.8 -0.1 2.5 74 1.9 WSW 28 67 15 36 - - 0.0
16/07:30pm 7.0 0.5 2.5 73 2.0 WSW 26 67 14 36 - - 0.0
16/07:10pm 7.7 0.9 3.2 73 2.0 W 28 57 15 31 - - 0.0
16/07:00pm 7.6 1.4 4.2 79 1.6 WSW 26 52 14 28 - - 0.0
16/06:30pm 8.1 0.0 3.4 72 2.2 SW 35 72 19 39 - - 0.0
16/06:00pm 8.1 -0.2 4.3 77 1.8 WSW 37 67 20 36 - - 0.0
16/05:30pm 7.1 -2.7 5.1 87 0.9 WSW 46 69 25 37 - - 0.0
16/05:06pm 6.9 -0.2 6.3 96 0.3 WSW 33 82 18 44 - - 0.0
16/05:00pm 7.3 0.8 6.6 95 0.3 WSW 30 63 16 34 - - 0.0
16/04:30pm 8.2 1.5 7.4 95 0.4 WSW 32 54 17 29 - - 0.0
16/04:00pm 8.2 -0.4 8.1 99 0.1 WSW 43 65 23 35 - - 0.0
16/03:30pm 8.3 -1.6 8.2 99 0.1 WSW 50 74 27 40 - - 0.0
16/03:00pm 11.4 2.1 7.7 78 1.9 W 46 74 25 40 - - 0.0
16/02:30pm 13.7 4.0 5.8 59 4.0 W 46 72 25 39 - - 0.0

Other Formats:

Comma delimited format used in spreadsheet applications
http://www.bom.gov.au/fwo/IDV60801/IDV60801.94833.axf

JavaScript Object Notation format (JSON) in row-major order
http://www.bom.gov.au/fwo/IDV60801/IDV60801.94833.json